createdAt,value
2024-05-09T00:04:01.082Z,14
2024-05-09T00:09:59.858Z,15
2024-05-09T00:16:00.720Z,13
2024-05-09T00:21:59.255Z,14
2024-05-09T00:27:59.722Z,14
2024-05-09T00:33:59.833Z,15
2024-05-09T00:39:59.509Z,14
2024-05-09T00:45:59.503Z,15
2024-05-09T00:51:59.847Z,15
2024-05-09T00:58:00.146Z,15
2024-05-09T01:03:59.552Z,14
2024-05-09T01:13:11.087Z,15
2024-05-09T01:18:59.422Z,16
2024-05-09T01:24:59.223Z,15
2024-05-09T01:30:59.509Z,15
2024-05-09T01:36:59.252Z,14
2024-05-09T01:42:59.280Z,14
2024-05-09T01:49:00.058Z,14
2024-05-09T01:55:02.778Z,14
2024-05-09T02:01:03.209Z,14
2024-05-09T02:07:00.019Z,14
2024-05-09T02:13:00.152Z,15
2024-05-09T02:19:00.186Z,14
2024-05-09T02:25:00.003Z,15
2024-05-09T02:31:02.395Z,13
2024-05-09T02:37:00.146Z,13
2024-05-09T02:43:00.248Z,14
2024-05-09T02:49:00.367Z,13
2024-05-09T02:55:00.159Z,13
2024-05-09T03:01:00.432Z,13
2024-05-09T03:07:00.167Z,13
2024-05-09T03:13:00.328Z,14
2024-05-09T03:19:00.443Z,13
2024-05-09T03:25:00.209Z,14
2024-05-09T03:31:03.118Z,13
2024-05-09T03:37:00.151Z,12
2024-05-09T03:43:00.299Z,13
2024-05-09T03:49:01.475Z,14
2024-05-09T03:55:00.835Z,14
2024-05-09T04:01:00.595Z,13
2024-05-09T04:07:00.457Z,14
2024-05-09T04:13:00.980Z,14
2024-05-09T04:19:00.219Z,13
2024-05-09T04:31:01.928Z,15
2024-05-09T04:37:00.456Z,15
2024-05-09T04:43:01.158Z,15
2024-05-09T04:49:01.048Z,15
2024-05-09T04:55:00.303Z,15
2024-05-09T05:01:00.914Z,16
2024-05-09T05:13:01.162Z,17
2024-05-09T05:19:05.906Z,15
2024-05-09T05:25:01.820Z,15
2024-05-09T05:31:02.079Z,16
2024-05-09T05:43:02.091Z,16
2024-05-09T05:55:03.156Z,16
2024-05-09T06:01:15.252Z,19
2024-05-09T06:07:03.032Z,18
2024-05-09T06:13:03.675Z,18
2024-05-09T06:19:04.123Z,20
2024-05-09T06:25:04.014Z,18
2024-05-09T06:31:02.260Z,19
2024-05-09T06:43:01.876Z,23
2024-05-09T06:49:02.053Z,25
2024-05-09T06:55:02.532Z,26
2024-05-09T07:01:01.998Z,27
2024-05-09T07:07:01.708Z,29
2024-05-09T07:13:01.842Z,31
2024-05-09T07:19:02.004Z,33
2024-05-09T07:25:02.724Z,32
2024-05-09T07:31:08.715Z,35
2024-05-09T07:37:02.425Z,31
2024-05-09T07:43:02.820Z,31
2024-05-09T07:50:53.178Z,29
2024-05-09T07:55:03.793Z,29
2024-05-09T08:07:06.188Z,31
2024-05-09T08:13:04.457Z,33
2024-05-09T08:19:03.434Z,29
2024-05-09T08:25:17.049Z,31
2024-05-09T08:31:06.029Z,28
2024-05-09T08:37:10.103Z,28
2024-05-09T08:43:04.217Z,32
2024-05-09T08:49:04.155Z,32
2024-05-09T08:55:03.950Z,30
2024-05-09T09:01:08.484Z,29
2024-05-09T09:07:03.774Z,31
2024-05-09T09:13:03.274Z,27
2024-05-09T09:19:03.589Z,30
2024-05-09T09:25:09.402Z,26
2024-05-09T09:31:08.632Z,25
2024-05-09T09:37:08.690Z,21
2024-05-09T09:43:08.880Z,19
2024-05-09T09:49:08.933Z,18
2024-05-09T09:55:09.777Z,18
2024-05-09T10:01:09.885Z,15
2024-05-09T10:07:13.970Z,14
2024-05-09T10:13:09.204Z,11
2024-05-09T10:19:08.872Z,10
2024-05-09T10:25:09.066Z,9
2024-05-09T10:31:09.930Z,9
2024-05-09T10:37:08.724Z,7
2024-05-09T10:43:09.314Z,6
2024-05-09T10:49:09.294Z,6
2024-05-09T10:55:09.699Z,5
2024-05-09T11:01:08.890Z,6
2024-05-09T11:07:08.741Z,6
2024-05-09T11:13:09.278Z,7
2024-05-09T11:19:09.087Z,7
2024-05-09T11:25:11.240Z,7
2024-05-09T11:37:10.632Z,7
2024-05-09T11:43:09.046Z,7
2024-05-09T11:49:09.111Z,7
2024-05-09T11:55:09.946Z,7
2024-05-09T12:01:09.383Z,7
2024-05-09T12:07:12.215Z,6
2024-05-09T12:13:08.871Z,6
2024-05-09T12:25:10.614Z,6
2024-05-09T12:31:10.060Z,6
2024-05-09T12:37:08.787Z,5
2024-05-09T12:43:10.018Z,4
2024-05-09T12:55:09.388Z,5
2024-05-09T13:01:10.103Z,5
2024-05-09T13:07:09.214Z,4
2024-05-09T13:13:09.547Z,4
2024-05-09T13:19:08.856Z,5
2024-05-09T13:25:10.552Z,4
2024-05-09T13:31:10.641Z,6
2024-05-09T13:37:09.490Z,6
2024-05-09T13:43:08.924Z,7
2024-05-09T14:01:10.998Z,5
2024-05-09T14:07:08.765Z,6
2024-05-09T14:13:09.413Z,4
2024-05-09T14:19:09.099Z,5
2024-05-09T14:25:11.037Z,5
2024-05-09T14:31:10.328Z,5
2024-05-09T14:37:09.145Z,5
2024-05-09T14:43:10.207Z,8
2024-05-09T14:49:12.156Z,7
2024-05-09T14:55:12.184Z,6
2024-05-09T15:01:12.387Z,8
2024-05-09T15:07:11.415Z,7
2024-05-09T15:13:10.524Z,7
2024-05-09T15:19:10.571Z,6
2024-05-09T15:25:10.908Z,7
2024-05-09T15:31:09.883Z,7
2024-05-09T15:37:09.276Z,7
2024-05-09T15:43:11.324Z,7
2024-05-09T15:49:10.295Z,6
2024-05-09T15:55:11.134Z,7
2024-05-09T16:01:10.196Z,6
2024-05-09T16:07:10.177Z,7
2024-05-09T16:13:10.896Z,8
2024-05-09T16:19:10.289Z,8
2024-05-09T16:25:11.532Z,7
2024-05-09T16:31:10.201Z,10
2024-05-09T16:37:10.618Z,8
2024-05-09T16:43:11.322Z,9
2024-05-09T16:49:10.522Z,8
2024-05-09T16:55:11.219Z,7
2024-05-09T17:01:12.946Z,7
2024-05-09T17:07:11.271Z,8
2024-05-09T17:13:10.204Z,9
2024-05-09T17:25:10.585Z,7
2024-05-09T17:31:10.307Z,6
2024-05-09T17:37:10.549Z,6
2024-05-09T17:43:11.017Z,11
2024-05-09T17:49:20.395Z,11
2024-05-09T17:55:12.343Z,11
2024-05-09T18:01:11.092Z,15
2024-05-09T18:07:11.105Z,16
2024-05-09T18:13:10.796Z,15
2024-05-09T18:19:13.293Z,17
2024-05-09T18:25:14.202Z,18
2024-05-09T18:31:12.920Z,19
2024-05-09T18:37:14.036Z,21
2024-05-09T18:43:12.844Z,19
2024-05-09T18:49:13.787Z,18
2024-05-09T18:55:12.778Z,17
2024-05-09T19:01:12.896Z,17
2024-05-09T19:07:13.170Z,16
2024-05-09T19:13:14.218Z,17
2024-05-09T19:19:13.277Z,16
2024-05-09T19:25:12.560Z,17
2024-05-09T19:31:24.925Z,17
2024-05-09T19:37:13.243Z,15
2024-05-09T19:43:13.062Z,16
2024-05-09T19:49:13.971Z,16
2024-05-09T19:55:13.915Z,16
2024-05-09T20:01:13.925Z,17
2024-05-09T20:07:13.851Z,18
2024-05-09T20:13:17.640Z,17
2024-05-09T20:19:14.232Z,17
2024-05-09T20:25:14.319Z,15
2024-05-09T20:31:13.918Z,16
2024-05-09T20:37:14.218Z,16
2024-05-09T20:43:14.915Z,16
2024-05-09T20:49:14.330Z,16
2024-05-09T20:55:14.346Z,14
2024-05-09T21:01:15.250Z,14
2024-05-09T21:07:13.841Z,14
2024-05-09T21:13:14.798Z,13
2024-05-09T21:19:14.856Z,14
2024-05-09T21:25:15.489Z,14
2024-05-09T21:31:15.532Z,14
2024-05-09T21:37:15.786Z,14
2024-05-09T21:43:27.765Z,14
2024-05-09T21:49:27.323Z,14
2024-05-09T21:55:27.280Z,14
2024-05-09T22:01:27.424Z,15
2024-05-09T22:07:27.032Z,15
2024-05-09T22:13:31.511Z,16
2024-05-09T22:19:36.651Z,16
2024-05-09T22:25:32.119Z,16
2024-05-09T22:31:31.094Z,17
2024-05-09T22:37:31.158Z,17
2024-05-09T22:43:31.474Z,16
2024-05-09T22:49:31.236Z,16
2024-05-09T22:55:31.354Z,16
2024-05-09T23:01:31.728Z,17
2024-05-09T23:07:30.801Z,17
2024-05-09T23:13:31.062Z,17
2024-05-09T23:19:30.971Z,18
2024-05-09T23:25:30.981Z,18
2024-05-09T23:31:31.803Z,19
2024-05-09T23:37:30.710Z,19
2024-05-09T23:43:31.024Z,18
2024-05-09T23:49:30.978Z,20
2024-05-09T23:55:31.955Z,19
